METAR Data
IDs: Format: Raw Decoded Include TAF

Data at: 0144 UTC 20 Jul 2019

METAR for:KJAX (Jacksonville Intl, FL, US)
Text:KJAX 200056Z 00000KT 10SM FEW055 SCT180 BKN250 24/23 A3009 RMK AO2 SLP190 T02390228
Temperature: 23.9°C ( 75°F)
Dewpoint: 22.8°C ( 73°F) [RH = 94%]
Pressure (altimeter):30.09 inches Hg (1019.0 mb) [Sea level pressure: 1019.0 mb]
Winds:calm
Visibility:10 or more sm (16+ km)
Ceiling:25000 feet AGL
Clouds: few clouds at 5500 feet AGL, scattered clouds at 18000 feet AGL, broken clouds at 25000 feet AGL

METAR for:KCRG (Jacksonville/Executi, FL, US)
Text:KCRG 200053Z 32003KT 10SM FEW048 25/22 A3010 RMK AO2 SLP193 T02500222
Temperature: 25.0°C ( 77°F)
Dewpoint: 22.2°C ( 72°F) [RH = 84%]
Pressure (altimeter):30.10 inches Hg (1019.4 mb) [Sea level pressure: 1019.3 mb]
Winds:from the NW (320 degrees) at 3 MPH (3 knots; 1.5 m/s)
Visibility:10 or more sm (16+ km)
Ceiling:at least 12,000 feet AGL
Clouds: few clouds at 4800 feet AGL

METAR for:KNIP (Jacksonville (NAS), FL, US)
Text:KNIP 200053Z 00000KT 10SM SCT180 BKN250 27/22 A3010 RMK AO2 SLP189 T2 SET T02670217 $
Temperature: 26.7°C ( 80°F)
Dewpoint: 21.7°C ( 71°F) [RH = 74%]
Pressure (altimeter):30.10 inches Hg (1019.4 mb) [Sea level pressure: 1018.9 mb]
Winds:calm
Visibility:10 or more sm (16+ km)
Ceiling:25000 feet AGL
Clouds: scattered clouds at 18000 feet AGL, broken clouds at 25000 feet AGL
QC Flag:SOME DATA ABOVE MAY BE INACCURATE!!!"$" is an indication the sensor requires maintenance.

METAR for:KNRB (Mayport (NS), FL, US)
Text:KNRB 200052Z AUTO 28005KT 10SM SCT045 27/22 A3010 RMK AO2 SLP192 T02720222
Temperature: 27.2°C ( 81°F)
Dewpoint: 22.2°C ( 72°F) [RH = 74%]
Pressure (altimeter):30.10 inches Hg (1019.4 mb) [Sea level pressure: 1019.2 mb]
Winds:from the W (280 degrees) at 6 MPH (5 knots; 2.6 m/s)
Visibility:10 or more sm (16+ km)
Ceiling:at least 12,000 feet AGL
Clouds: scattered clouds at 4500 feet AGL
QC Flag:automated observation with no human augmentation

METAR for:KFHB (Fernandina Beach Mun, FL, US)
Text:KFHB 200135Z AUTO 25003KT 10SM CLR 24/22 A3011 RMK AO2 T02440221
Temperature: 24.4°C ( 76°F)
Dewpoint: 22.1°C ( 72°F) [RH = 87%]
Pressure (altimeter):30.11 inches Hg (1019.7 mb)
Winds:from the WSW (250 degrees) at 3 MPH (3 knots; 1.5 m/s)
Visibility:10 or more sm (16+ km)
Ceiling:at least 12,000 feet AGL
Clouds:sky clear below 12,000 feet AGL
QC Flag:automated observation with no human augmentation

METAR for:KVQQ (Jacksonville/Cecil A, FL, US)
Text:KVQQ 200050Z VRB03KT 10SM CLR 24/23 A3010
Temperature: 24.0°C ( 75°F)
Dewpoint: 23.0°C ( 73°F) [RH = 94%]
Pressure (altimeter):30.10 inches Hg (1019.4 mb)
Winds:variable direction winds at 3 MPH (3 knots; 1.5 m/s)
Visibility:10 or more sm (16+ km)
Ceiling:at least 12,000 feet AGL
Clouds:sky clear below 12,000 feet AGL